Time;durP1;ratioP1;P1;durP2;ratioP2;P2;SDS_P1;SDS_P2;PMS_P1;PMS_P2;Temp;Humidity;BMP_temperature;BMP_pressure;BME280_temperature;BME280_humidity;BME280_pressure;Samples;Min_cycle;Max_cycle;Signal;HPM_P1;HPM_P2
2022/08/23 00:02:35;;;;;;;3.80;2.60;;;;;;;-148.56;100.00;61375.16;5026476;28;20404;-28
2022/08/23 00:05:59;;;;;;;3.95;2.60;;;;;;;-148.56;100.00;61375.16;5030110;28;20118;-28
2022/08/23 00:09:23;;;;;;;3.78;2.65;;;;;;;-148.56;100.00;61375.16;5025341;28;20029;-29
2022/08/23 00:12:48;;;;;;;3.30;2.20;;;;;;;-148.56;100.00;61375.16;5023903;28;20547;-30
2022/08/23 00:16:13;;;;;;;3.95;2.42;;;;;;;-148.56;100.00;61375.16;5026118;28;20714;-28
2022/08/23 00:19:38;;;;;;;3.33;2.30;;;;;;;-148.56;100.00;61375.16;5026500;28;20033;-28
2022/08/23 00:23:02;;;;;;;3.20;2.38;;;;;;;-148.56;100.00;61375.16;5026081;28;20026;-28
2022/08/23 00:26:26;;;;;;;4.28;2.55;;;;;;;-148.56;100.00;61375.16;5027036;28;20063;-27
2022/08/23 00:29:51;;;;;;;3.60;2.22;;;;;;;-148.56;100.00;61375.16;5027895;28;20606;-28
2022/08/23 00:33:22;;;;;;;2.97;2.25;;;;;;;-148.56;100.00;61375.16;5024864;28;20151;-28
2022/08/23 00:36:46;;;;;;;4.55;2.40;;;;;;;-148.56;100.00;61375.16;5026042;28;20036;-30
2022/08/23 00:40:11;;;;;;;5.20;2.40;;;;;;;-148.56;100.00;61375.16;5023134;28;20504;-29
2022/08/23 00:47:40;;;;;;;2.70;2.45;;;;;;;-148.56;100.00;61375.16;5022719;28;20134;-28
2022/08/23 00:51:07;;;;;;;3.03;2.17;;;;;;;-148.56;100.00;61375.16;5020813;28;20108;-28
2022/08/23 00:54:32;;;;;;;3.50;2.20;;;;;;;-148.56;100.00;61375.16;5021373;28;20059;-28
2022/08/23 00:57:56;;;;;;;3.15;2.28;;;;;;;-148.56;100.00;61375.16;5025603;28;20026;-29
2022/08/23 01:01:20;;;;;;;3.05;2.00;;;;;;;-148.56;100.00;61375.16;5027939;28;20033;-28
2022/08/23 01:04:48;;;;;;;2.75;2.17;;;;;;;-148.56;100.00;61375.16;5026678;28;20079;-28
2022/08/23 01:08:12;;;;;;;5.32;2.40;;;;;;;-148.56;100.00;61375.16;5027353;28;20505;-28
2022/08/23 01:11:52;;;;;;;3.42;2.25;;;;;;;-148.56;100.00;61375.16;5025895;28;20036;-29
2022/08/23 01:15:22;;;;;;;3.33;2.63;;;;;;;-148.56;100.00;61375.16;5026776;28;20148;-28
2022/08/23 01:18:47;;;;;;;3.00;2.15;;;;;;;-148.56;100.00;61375.16;5020079;28;20082;-28
2022/08/23 01:22:17;;;;;;;3.53;2.42;;;;;;;-148.56;100.00;61375.16;5027231;28;20555;-29
2022/08/23 01:25:41;;;;;;;2.55;1.90;;;;;;;-148.56;100.00;61375.16;5024264;28;20029;-28
2022/08/23 01:29:05;;;;;;;4.07;2.30;;;;;;;-148.56;100.00;61375.16;5015821;28;20067;-27
2022/08/23 01:32:31;;;;;;;2.92;2.30;;;;;;;-148.56;100.00;61375.16;5024165;28;20615;-28
2022/08/23 01:35:56;;;;;;;2.50;2.28;;;;;;;-148.56;100.00;61375.16;5024714;28;20043;-29
2022/08/23 01:39:20;;;;;;;2.78;2.00;;;;;;;-148.56;100.00;61375.16;5025687;28;20073;-28
2022/08/23 01:42:46;;;;;;;2.40;2.13;;;;;;;-148.56;100.00;61375.16;5032113;28;20033;-28
2022/08/23 01:46:12;;;;;;;2.47;2.15;;;;;;;-148.56;100.00;61375.16;5027256;28;20029;-28
2022/08/23 01:49:36;;;;;;;8.48;2.25;;;;;;;-148.56;100.00;61375.16;5027621;28;20040;-28
2022/08/23 01:53:00;;;;;;;3.97;2.22;;;;;;;-148.56;100.00;61375.16;5025552;28;20162;-28
2022/08/23 01:56:24;;;;;;;2.67;2.28;;;;;;;-148.56;100.00;61375.16;5019669;28;20025;-28
2022/08/23 01:59:48;;;;;;;4.82;2.20;;;;;;;-148.56;100.00;61375.16;5028448;28;20128;-27
2022/08/23 02:03:12;;;;;;;2.55;2.10;;;;;;;-148.56;100.00;61375.16;5028783;28;20059;-28
2022/08/23 02:06:36;;;;;;;3.00;2.15;;;;;;;-148.56;100.00;61375.16;5027715;28;20062;-27
2022/08/23 02:10:01;;;;;;;4.30;2.30;;;;;;;-148.56;100.00;61375.16;5029040;28;20691;-31
2022/08/23 02:13:25;;;;;;;2.20;2.00;;;;;;;-148.56;100.00;61375.16;5029648;28;20842;-30
2022/08/23 02:16:50;;;;;;;2.35;1.90;;;;;;;-148.56;100.00;61375.16;5028011;28;20029;-29
2022/08/23 02:20:14;;;;;;;3.33;2.20;;;;;;;-148.56;100.00;61375.16;5032793;28;20041;-31
2022/08/23 02:23:38;;;;;;;3.10;2.40;;;;;;;-148.56;100.00;61375.16;5030656;28;20055;-28
2022/08/23 02:27:03;;;;;;;4.70;2.17;;;;;;;-148.56;100.00;61375.16;5027786;28;20191;-27
2022/08/23 02:30:27;;;;;;;3.70;2.50;;;;;;;-148.56;100.00;61375.16;5029028;28;20087;-28
2022/08/23 02:33:50;;;;;;;3.10;2.15;;;;;;;-148.56;100.00;61375.16;5030336;28;20100;-28
2022/08/23 02:37:14;;;;;;;2.65;1.90;;;;;;;-148.56;100.00;61375.16;5027574;28;20033;-30
2022/08/23 02:40:38;;;;;;;3.33;2.30;;;;;;;-148.56;100.00;61375.16;5025149;28;20725;-28
2022/08/23 02:44:03;;;;;;;2.67;2.00;;;;;;;-148.56;100.00;61375.16;5027105;28;20108;-28
2022/08/23 02:47:26;;;;;;;2.65;2.03;;;;;;;-148.56;100.00;61375.16;5022160;28;20056;-28
2022/08/23 02:50:51;;;;;;;2.53;2.10;;;;;;;-148.56;100.00;61375.16;5027610;28;20948;-28
2022/08/23 02:54:14;;;;;;;4.80;2.00;;;;;;;-148.56;100.00;61375.16;5025590;28;20630;-28
2022/08/23 02:57:38;;;;;;;3.15;2.15;;;;;;;-148.56;100.00;61375.16;5026317;28;20060;-28
2022/08/23 03:01:03;;;;;;;4.57;2.45;;;;;;;-148.56;100.00;61375.16;5025692;28;20052;-28
2022/08/23 03:04:27;;;;;;;2.78;2.05;;;;;;;-148.56;100.00;61375.16;5025787;28;20069;-28
2022/08/23 03:07:51;;;;;;;4.00;2.05;;;;;;;-148.56;100.00;61375.16;5025391;28;20087;-28
2022/08/23 03:11:16;;;;;;;3.63;2.10;;;;;;;-148.56;100.00;61375.16;5023829;28;20631;-29
2022/08/23 03:14:40;;;;;;;3.70;2.03;;;;;;;-148.56;100.00;61375.16;5024384;28;20045;-28
2022/08/23 03:18:04;;;;;;;4.90;2.08;;;;;;;-148.56;100.00;61375.16;5023997;28;20030;-28
2022/08/23 03:21:28;;;;;;;3.33;2.15;;;;;;;-148.56;100.00;61375.16;5026796;28;20029;-29
2022/08/23 03:24:52;;;;;;;3.63;2.10;;;;;;;-148.56;100.00;61375.16;5023887;28;20039;-29
2022/08/23 03:28:16;;;;;;;3.45;2.45;;;;;;;-148.56;100.00;61375.16;5025541;28;20025;-30
2022/08/23 03:31:40;;;;;;;3.05;2.20;;;;;;;-148.56;100.00;61375.16;5024693;28;20033;-28
2022/08/23 03:35:05;;;;;;;2.35;2.00;;;;;;;-148.56;100.00;61375.16;5026373;28;20032;-28
2022/08/23 03:38:29;;;;;;;2.90;2.00;;;;;;;-148.56;100.00;61375.16;5021412;28;20600;-29
2022/08/23 03:41:53;;;;;;;2.55;2.15;;;;;;;-148.56;100.00;61375.16;5025342;28;20095;-28
2022/08/23 03:45:17;;;;;;;3.20;2.20;;;;;;;-148.56;100.00;61375.16;5025798;28;20033;-30
2022/08/23 03:48:41;;;;;;;3.22;2.20;;;;;;;-148.56;100.00;61375.16;5022947;28;20036;-30
2022/08/23 03:52:05;;;;;;;3.58;2.40;;;;;;;-148.56;100.00;61375.16;5025563;28;20041;-30
2022/08/23 03:55:29;;;;;;;2.80;1.92;;;;;;;-148.56;100.00;61375.16;5023716;28;20603;-28
2022/08/23 03:58:53;;;;;;;4.25;2.63;;;;;;;-148.56;100.00;61375.16;5025368;28;20087;-29
2022/08/23 04:02:17;;;;;;;2.22;2.03;;;;;;;-148.56;100.00;61375.16;5020438;28;20033;-28
2022/08/23 04:05:41;;;;;;;3.15;2.05;;;;;;;-148.56;100.00;61375.16;5023721;28;20388;-31
2022/08/23 04:09:06;;;;;;;3.33;2.17;;;;;;;-148.56;100.00;61375.16;5023284;28;20025;-28
2022/08/23 04:12:31;;;;;;;2.00;1.80;;;;;;;-148.56;100.00;61375.16;5021580;28;20021;-29
2022/08/23 04:15:55;;;;;;;3.58;2.10;;;;;;;-148.56;100.00;61375.16;5026842;28;20033;-28
2022/08/23 04:19:20;;;;;;;3.58;1.88;;;;;;;-148.56;100.00;61375.16;5023623;28;20021;-28
2022/08/23 04:22:45;;;;;;;2.30;2.00;;;;;;;-148.56;100.00;61375.16;5024316;28;20028;-29
2022/08/23 04:26:09;;;;;;;2.70;2.08;;;;;;;-148.56;100.00;61375.16;5021270;28;20057;-28
2022/08/23 04:29:33;;;;;;;2.35;1.88;;;;;;;-148.56;100.00;61375.16;5031976;28;20110;-30
2022/08/23 04:32:57;;;;;;;4.60;2.15;;;;;;;-148.56;100.00;61375.16;5039260;28;20572;-30
2022/08/23 04:36:21;;;;;;;6.07;2.28;;;;;;;-148.56;100.00;61375.16;5023232;28;20037;-30
2022/08/23 04:43:27;;;;;;;3.78;2.05;;;;;;;-148.56;100.00;61375.16;5023607;28;20133;-28
2022/08/23 04:46:51;;;;;;;2.78;1.90;;;;;;;-148.56;100.00;61375.16;5022199;28;20071;-28
2022/08/23 04:50:15;;;;;;;2.63;2.05;;;;;;;-148.56;100.00;61375.16;5025502;28;20025;-29
2022/08/23 04:53:39;;;;;;;2.95;1.90;;;;;;;-148.56;100.00;61375.16;5026004;28;20041;-28
2022/08/23 04:57:03;;;;;;;2.92;2.15;;;;;;;-148.56;100.00;61375.16;5026347;28;20508;-27
2022/08/23 05:00:28;;;;;;;2.70;2.10;;;;;;;-148.56;100.00;61375.16;5021364;28;20872;-28
2022/08/23 05:03:52;;;;;;;2.47;2.05;;;;;;;-148.56;100.00;61375.16;5024058;28;20481;-28
2022/08/23 05:07:16;;;;;;;2.15;1.80;;;;;;;-148.56;100.00;61375.16;5023796;28;20110;-28
2022/08/23 05:10:39;;;;;;;3.75;2.13;;;;;;;-148.56;100.00;61375.16;5023213;28;20029;-28
2022/08/23 05:14:03;;;;;;;5.47;2.20;;;;;;;-148.56;100.00;61375.16;5023996;28;20148;-30
2022/08/23 05:17:27;;;;;;;2.83;1.90;;;;;;;-148.56;100.00;61375.16;5026174;28;20025;-31
2022/08/23 05:20:51;;;;;;;3.67;2.13;;;;;;;-148.56;100.00;61375.16;5029614;28;20025;-31
2022/08/23 05:24:15;;;;;;;3.75;2.10;;;;;;;-148.56;100.00;61375.16;5027497;28;20532;-30
2022/08/23 05:27:39;;;;;;;3.08;2.20;;;;;;;-148.56;100.00;61375.16;5028128;28;20115;-27
2022/08/23 05:31:05;;;;;;;2.47;2.03;;;;;;;-148.56;100.00;61375.16;5025827;28;20642;-29
2022/08/23 05:34:30;;;;;;;2.67;1.92;;;;;;;-148.56;100.00;61375.16;5030701;28;20025;-28
2022/08/23 05:37:54;;;;;;;2.80;1.95;;;;;;;-148.56;100.00;61375.16;5029417;28;20053;-28
2022/08/23 05:41:18;;;;;;;5.18;2.20;;;;;;;-148.56;100.00;61375.16;5027103;28;20072;-28
2022/08/23 05:44:42;;;;;;;3.85;2.10;;;;;;;-148.56;100.00;61375.16;5027586;28;20532;-28
2022/08/23 05:48:06;;;;;;;7.22;2.00;;;;;;;-148.56;100.00;61375.16;5028225;28;20115;-30
2022/08/23 05:51:30;;;;;;;3.90;2.10;;;;;;;-148.56;100.00;61375.16;5025801;28;20091;-28
2022/08/23 05:54:55;;;;;;;5.25;2.20;;;;;;;-148.56;100.00;61375.16;5024410;28;20033;-28
2022/08/23 05:58:19;;;;;;;6.03;2.30;;;;;;;-148.56;100.00;61375.16;5023766;28;20040;-28
2022/08/23 06:01:43;;;;;;;7.85;3.35;;;;;;;-148.56;100.00;61375.16;5025866;28;20109;-28
2022/08/23 06:05:08;;;;;;;10.93;3.20;;;;;;;-148.56;100.00;61375.16;5026183;28;20534;-28
2022/08/23 06:08:33;;;;;;;20.67;4.00;;;;;;;-148.56;100.00;61375.16;5028447;28;20040;-28
2022/08/23 06:11:59;;;;;;;20.45;4.05;;;;;;;-148.56;100.00;61375.16;5026547;28;20036;-28
2022/08/23 06:15:23;;;;;;;17.52;4.10;;;;;;;-148.56;100.00;61375.16;5026579;28;20037;-29
2022/08/23 06:18:47;;;;;;;21.33;4.53;;;;;;;-148.56;100.00;61375.16;5025775;28;20024;-29
2022/08/23 06:22:11;;;;;;;19.13;4.28;;;;;;;-148.56;100.00;61375.16;5024661;28;20044;-28
2022/08/23 06:25:38;;;;;;;25.40;4.07;;;;;;;-148.56;100.00;61375.16;5030297;28;20029;-28
2022/08/23 06:29:04;;;;;;;20.10;4.03;;;;;;;-148.56;100.00;61375.16;5028520;28;20047;-29
2022/08/23 06:32:28;;;;;;;14.68;4.07;;;;;;;-148.56;100.00;61375.16;5027131;28;20025;-28
2022/08/23 06:36:03;;;;;;;18.70;4.63;;;;;;;-148.56;100.00;61375.16;5027510;28;20052;-28
2022/08/23 06:39:27;;;;;;;17.40;4.30;;;;;;;-148.56;100.00;61375.16;5027928;28;20033;-28
2022/08/23 06:42:54;;;;;;;13.75;3.97;;;;;;;-148.56;100.00;61375.16;5023698;28;20086;-28
2022/08/23 06:46:20;;;;;;;13.32;5.05;;;;;;;-148.56;100.00;61375.16;5022073;28;20072;-28
2022/08/23 06:49:43;;;;;;;12.48;4.53;;;;;;;-148.56;100.00;61375.16;5025612;28;20108;-28
2022/08/23 06:53:07;;;;;;;12.10;4.30;;;;;;;-148.56;100.00;61375.16;5025529;28;20021;-30
2022/08/23 06:56:31;;;;;;;10.65;4.10;;;;;;;-148.56;100.00;61375.16;5040348;28;20575;-29
2022/08/23 06:59:55;;;;;;;10.73;3.78;;;;;;;-148.56;100.00;61375.16;5021801;28;20040;-28
2022/08/23 07:03:19;;;;;;;12.75;4.05;;;;;;;-148.56;100.00;61375.16;5028179;28;20059;-28
2022/08/23 07:06:43;;;;;;;12.45;3.95;;;;;;;-148.56;100.00;61375.16;5026241;28;20059;-29
2022/08/23 07:10:07;;;;;;;9.18;3.92;;;;;;;-148.56;100.00;61375.16;5027647;28;20487;-28
2022/08/23 07:13:31;;;;;;;8.80;4.20;;;;;;;-148.56;100.00;61375.16;5026984;28;20095;-28
2022/08/23 07:16:58;;;;;;;13.30;3.80;;;;;;;-148.56;100.00;61375.16;5023937;28;20047;-28
2022/08/23 07:20:22;;;;;;;8.23;4.20;;;;;;;-148.56;100.00;61375.16;5027249;28;20045;-30
2022/08/23 07:23:46;;;;;;;12.82;4.15;;;;;;;-148.56;100.00;61375.16;5028350;28;20125;-28
2022/08/23 07:27:11;;;;;;;12.95;4.00;;;;;;;-148.56;100.00;61375.16;5025508;28;20902;-29
2022/08/23 07:30:35;;;;;;;8.40;3.40;;;;;;;-148.56;100.00;61375.16;5025357;28;20029;-29
2022/08/23 07:33:59;;;;;;;11.95;4.13;;;;;;;-148.56;100.00;61375.16;5023511;28;20079;-28
2022/08/23 07:37:24;;;;;;;18.58;4.20;;;;;;;-148.56;100.00;61375.16;5024698;28;20029;-29
2022/08/23 07:40:47;;;;;;;15.48;3.67;;;;;;;-148.56;100.00;61375.16;5025516;28;20924;-30
2022/08/23 07:44:11;;;;;;;12.98;3.30;;;;;;;-148.56;100.00;61375.16;5024301;28;20041;-29
2022/08/23 07:47:36;;;;;;;11.90;3.50;;;;;;;-148.56;100.00;61375.16;5025693;28;20033;-29
2022/08/23 07:51:02;;;;;;;9.20;2.75;;;;;;;-148.56;100.00;61375.16;5021008;28;20051;-29
2022/08/23 07:54:27;;;;;;;6.72;3.05;;;;;;;-148.56;100.00;61375.16;5027154;28;20030;-29
2022/08/23 07:57:51;;;;;;;6.05;2.90;;;;;;;-148.56;100.00;61375.16;5025900;28;21282;-30
2022/08/23 08:01:16;;;;;;;7.65;2.70;;;;;;;-148.56;100.00;61375.16;5024015;28;20118;-30
2022/08/23 08:04:41;;;;;;;6.25;2.60;;;;;;;-148.56;100.00;61375.16;5024819;28;20036;-31
2022/08/23 08:08:05;;;;;;;10.65;2.50;;;;;;;-148.56;100.00;61375.16;5021767;28;20231;-29
2022/08/23 08:11:30;;;;;;;12.10;3.00;;;;;;;-148.56;100.00;61375.16;5023658;28;20033;-27
2022/08/23 08:14:54;;;;;;;8.13;2.80;;;;;;;-148.56;100.00;61375.16;5021781;28;20033;-28
2022/08/23 08:18:18;;;;;;;14.00;2.85;;;;;;;-148.56;100.00;61375.16;5025558;28;20033;-28
2022/08/23 08:21:44;;;;;;;12.05;2.75;;;;;;;-148.56;100.00;61375.16;5023090;28;20036;-27
2022/08/23 08:25:08;;;;;;;11.05;2.80;;;;;;;-148.56;100.00;61375.16;5022921;28;20040;-28
2022/08/23 08:28:33;;;;;;;10.98;2.50;;;;;;;-148.56;100.00;61375.16;5025431;28;20722;-28
2022/08/23 08:31:57;;;;;;;6.97;2.67;;;;;;;-148.56;100.00;61375.16;5026114;28;20029;-28
2022/08/23 08:35:20;;;;;;;10.57;2.80;;;;;;;-148.56;100.00;61375.16;5023455;28;20996;-28
2022/08/23 08:38:44;;;;;;;6.85;2.40;;;;;;;-148.56;100.00;61375.16;5039915;28;20033;-28
2022/08/23 08:42:18;;;;;;;13.73;3.03;;;;;;;-148.56;100.00;61375.16;5026396;28;20802;-30
2022/08/23 08:45:51;;;;;;;8.40;2.50;;;;;;;-148.56;100.00;61375.16;5022747;28;20033;-28
2022/08/23 08:49:23;;;;;;;13.27;3.00;;;;;;;-148.56;100.00;61375.16;5025244;28;20052;-29
2022/08/23 08:53:21;;;;;;;14.18;2.63;;;;;;;-148.56;100.00;61375.16;5024573;28;20028;-28
2022/08/23 08:56:48;;;;;;;8.40;2.72;;;;;;;-148.56;100.00;61375.16;5018234;28;20155;-27
2022/08/23 09:00:22;;;;;;;12.15;2.53;;;;;;;-148.56;100.00;61375.16;5025079;28;20765;-27
2022/08/23 09:03:47;;;;;;;5.53;2.10;;;;;;;-148.56;100.00;61375.16;5023882;28;20040;-29
2022/08/23 09:07:13;;;;;;;9.82;2.50;;;;;;;-148.56;100.00;61375.16;5024382;28;20627;-28
2022/08/23 09:11:08;;;;;;;8.10;2.30;;;;;;;-148.56;100.00;61375.16;5023133;28;20039;-28
2022/08/23 09:14:38;;;;;;;6.18;2.20;;;;;;;-148.56;100.00;61375.16;5025670;28;20025;-28
2022/08/23 09:18:06;;;;;;;5.50;2.03;;;;;;;-148.56;100.00;61375.16;5025986;28;20459;-28
2022/08/23 09:21:41;;;;;;;7.38;2.38;;;;;;;-148.56;100.00;61375.16;5023949;28;20044;-28
2022/08/23 09:25:07;;;;;;;5.80;2.38;;;;;;;-148.56;100.00;61375.16;5021012;28;20041;-30
2022/08/23 09:28:32;;;;;;;7.30;2.30;;;;;;;-148.56;100.00;61375.16;5025000;28;20629;-28
2022/08/23 09:32:00;;;;;;;5.28;2.17;;;;;;;-148.56;100.00;61375.16;5022414;28;20120;-28
2022/08/23 09:35:27;;;;;;;4.63;2.10;;;;;;;-148.56;100.00;61375.16;5025549;28;20024;-28
2022/08/23 09:38:56;;;;;;;5.95;2.70;;;;;;;-148.56;100.00;61375.16;5025571;28;20707;-28
2022/08/23 09:42:27;;;;;;;6.55;2.28;;;;;;;-148.56;100.00;61375.16;5021687;28;20033;-28
2022/08/23 09:45:51;;;;;;;5.22;2.50;;;;;;;-148.56;100.00;61375.16;5027207;28;20067;-30
2022/08/23 09:49:34;;;;;;;6.38;2.33;;;;;;;-148.56;100.00;61375.16;5021259;28;20113;-28
2022/08/23 09:53:02;;;;;;;9.93;2.72;;;;;;;-148.56;100.00;61375.16;5022396;28;20881;-30
2022/08/23 09:56:31;;;;;;;6.20;2.80;;;;;;;-148.56;100.00;61375.16;5012890;28;20028;-27
2022/08/23 09:59:56;;;;;;;5.00;2.33;;;;;;;-148.56;100.00;61375.16;5024332;28;20256;-28
2022/08/23 10:03:27;;;;;;;6.95;2.25;;;;;;;-148.56;100.00;61375.16;5014130;28;20036;-29
2022/08/23 10:06:52;;;;;;;4.47;2.25;;;;;;;-148.56;100.00;61375.16;5031942;28;20690;-29
2022/08/23 10:10:45;;;;;;;6.53;2.50;;;;;;;-148.56;100.00;61375.16;5029280;28;20040;-28
2022/08/23 10:14:11;;;;;;;;;;;;;;;-148.56;100.00;61375.16;5027389;28;20109;-28
2022/08/23 10:17:57;;;;;;;4.85;2.40;;;;;;;-148.56;100.00;61375.16;5034617;28;19916;-28
2022/08/23 10:21:40;;;;;;;3.95;2.20;;;;;;;-148.56;100.00;61375.16;5032754;28;20028;-28
2022/08/23 10:25:15;;;;;;;5.75;2.45;;;;;;;-148.56;100.00;61375.16;5030018;28;20035;-28
2022/08/23 10:33:05;;;;;;;7.05;2.50;;;;;;;-148.56;100.00;61375.16;5030092;28;20044;-28
2022/08/23 10:36:33;;;;;;;4.65;2.30;;;;;;;-148.56;100.00;61375.16;5037184;28;20496;-26
2022/08/23 10:39:58;;;;;;;5.80;2.08;;;;;;;-148.56;100.00;61375.16;5030963;28;20068;-27
2022/08/23 10:43:26;;;;;;;4.40;2.30;;;;;;;-148.56;100.00;61375.16;5032540;28;20033;-26
2022/08/23 10:46:56;;;;;;;7.97;1.98;;;;;;;-148.56;100.00;61375.16;5033203;28;20076;-26
2022/08/23 10:50:21;;;;;;;3.50;2.10;;;;;;;-148.56;100.00;61375.16;5030662;28;20025;-28
2022/08/23 10:54:14;;;;;;;4.07;2.08;;;;;;;-148.56;100.00;61375.16;5034001;28;20421;-27
2022/08/23 10:57:39;;;;;;;3.35;2.30;;;;;;;-148.56;100.00;61375.16;5031182;28;20075;-27
2022/08/23 11:01:04;;;;;;;3.92;2.28;;;;;;;-148.56;100.00;61375.16;5032128;28;20123;-27
2022/08/23 11:04:45;;;;;;;3.80;2.10;;;;;;;-148.56;100.00;61375.16;5022578;28;20029;-27
2022/08/23 11:08:33;;;;;;;3.47;2.10;;;;;;;-148.56;100.00;61375.16;5039732;28;20405;-26
2022/08/23 11:12:11;;;;;;;4.85;1.98;;;;;;;-148.56;100.00;61375.16;5031998;28;20036;-27
2022/08/23 11:15:44;;;;;;;4.40;2.33;;;;;;;-148.56;100.00;61375.16;5028999;28;20033;-27
2022/08/23 11:19:12;;;;;;;6.68;1.95;;;;;;;-148.56;100.00;61375.16;5029141;28;20056;-28
2022/08/23 11:22:55;;;;;;;2.92;1.90;;;;;;;-148.56;100.00;61375.16;5030229;28;20032;-27
2022/08/23 11:26:22;;;;;;;2.50;1.80;;;;;;;-148.56;100.00;61375.16;5028296;28;20033;-28
2022/08/23 11:29:46;;;;;;;2.97;1.83;;;;;;;-148.56;100.00;61375.16;5031648;28;20041;-28
2022/08/23 11:33:25;;;;;;;4.35;2.17;;;;;;;-148.56;100.00;61375.16;5033514;28;20065;-28
2022/08/23 11:37:07;;;;;;;4.07;2.00;;;;;;;-148.56;100.00;61375.16;5028829;28;20029;-26
2022/08/23 11:40:51;;;;;;;2.55;1.60;;;;;;;-148.56;100.00;61375.16;5030821;28;20526;-33
2022/08/23 11:44:36;;;;;;;3.33;1.58;;;;;;;-148.56;100.00;61375.16;5029258;28;20028;-30
2022/08/23 11:48:04;;;;;;;2.53;1.67;;;;;;;-148.56;100.00;61375.16;5032845;28;20029;-27
2022/08/23 11:52:06;;;;;;;3.15;1.83;;;;;;;-148.56;100.00;61375.16;5032868;28;20151;-28
2022/08/23 11:55:49;;;;;;;4.28;1.80;;;;;;;-148.56;100.00;61375.16;5033828;28;20021;-27
2022/08/23 11:59:13;;;;;;;;;;;;;;;-148.56;100.00;61375.16;5030029;28;20141;-28
2022/08/23 12:02:37;;;;;;;2.47;1.58;;;;;;;-148.56;100.00;61375.16;5030820;28;19921;-28
2022/08/23 12:06:21;;;;;;;2.63;1.73;;;;;;;-148.56;100.00;61375.16;5028671;28;20040;-28
2022/08/23 12:09:49;;;;;;;2.10;1.55;;;;;;;-148.56;100.00;61375.16;5031548;28;20902;-27
2022/08/23 12:13:30;;;;;;;2.50;1.45;;;;;;;-148.56;100.00;61375.16;5031302;28;20043;-27
2022/08/23 12:17:04;;;;;;;3.30;1.50;;;;;;;-148.56;100.00;61375.16;5030459;28;20036;-27
2022/08/23 12:20:42;;;;;;;2.35;1.35;;;;;;;-148.56;100.00;61375.16;5032222;28;20047;-27
2022/08/23 12:24:19;;;;;;;3.00;1.60;;;;;;;-148.56;100.00;61375.16;5017570;28;20025;-27
2022/08/23 12:28:17;;;;;;;1.95;1.60;;;;;;;-148.56;100.00;61375.16;5030880;28;20526;-27
2022/08/23 12:32:22;;;;;;;1.77;1.50;;;;;;;-148.56;100.00;61375.16;5001683;28;20107;-27
2022/08/23 12:36:06;;;;;;;2.13;1.50;;;;;;;-148.56;100.00;61375.16;5026383;28;20471;-27
2022/08/23 12:39:47;;;;;;;2.28;1.33;;;;;;;-148.56;100.00;61375.16;5027671;28;20086;-27
2022/08/23 12:43:12;;;;;;;3.53;1.48;;;;;;;-148.56;100.00;61375.16;5030550;28;20104;-28
2022/08/23 12:46:44;;;;;;;2.95;1.60;;;;;;;-148.56;100.00;61375.16;5029869;28;20028;-28
2022/08/23 12:50:14;;;;;;;;;;;;;;;-148.56;100.00;61375.16;5028659;28;20037;-27
2022/08/23 12:53:39;;;;;;;2.47;1.52;;;;;;;-148.56;100.00;61375.16;5030239;28;19916;-27
2022/08/23 12:57:10;;;;;;;1.80;1.48;;;;;;;-148.56;100.00;61375.16;5030112;28;20597;-29
2022/08/23 13:00:42;;;;;;;1.83;1.27;;;;;;;-148.56;100.00;61375.16;5031112;28;20040;-28
2022/08/23 13:04:09;;;;;;;2.20;1.52;;;;;;;-148.56;100.00;61375.16;5029677;28;20087;-30
2022/08/23 13:07:39;;;;;;;1.23;1.10;;;;;;;-148.56;100.00;61375.16;5029861;28;20045;-29
2022/08/23 13:11:04;;;;;;;1.42;1.20;;;;;;;-148.56;100.00;61375.16;5032324;28;20076;-33
2022/08/23 13:14:28;;;;;;;2.58;1.42;;;;;;;-148.56;100.00;61375.16;5028011;28;20052;-28
2022/08/23 13:17:57;;;;;;;1.38;1.20;;;;;;;-148.56;100.00;61375.16;5029581;28;20026;-31
2022/08/23 13:21:21;;;;;;;1.77;1.38;;;;;;;-148.56;100.00;61375.16;5027658;28;20626;-29
2022/08/23 13:24:59;;;;;;;1.67;1.02;;;;;;;-148.56;100.00;61375.16;5030634;28;20033;-28
2022/08/23 13:28:27;;;;;;;1.35;1.20;;;;;;;-148.56;100.00;61375.16;5029340;28;20388;-28
2022/08/23 13:31:58;;;;;;;1.50;1.20;;;;;;;-148.56;100.00;61375.16;5030152;28;20101;-28
2022/08/23 13:35:42;;;;;;;1.83;1.23;;;;;;;-148.56;100.00;61375.16;5033818;28;20116;-29
2022/08/23 13:39:12;;;;;;;2.35;1.50;;;;;;;-148.56;100.00;61375.16;5033961;28;20493;-27
2022/08/23 13:42:36;;;;;;;2.92;1.33;;;;;;;-148.56;100.00;61375.16;5031372;28;20040;-27
2022/08/23 13:46:14;;;;;;;1.63;1.30;;;;;;;-148.56;100.00;61375.16;5031710;28;20065;-28
2022/08/23 13:49:43;;;;;;;1.70;1.25;;;;;;;-148.56;100.00;61375.16;5026099;28;20025;-27
2022/08/23 13:53:07;;;;;;;1.60;1.13;;;;;;;-148.56;100.00;61375.16;5038476;28;20040;-28
2022/08/23 13:56:36;;;;;;;1.70;1.27;;;;;;;-148.56;100.00;61375.16;5030637;28;20029;-27
2022/08/23 14:00:20;;;;;;;1.25;1.10;;;;;;;-148.56;100.00;61375.16;5033847;28;20044;-27
2022/08/23 14:03:44;;;;;;;1.40;1.17;;;;;;;-148.56;100.00;61375.16;5033127;28;20052;-28
2022/08/23 14:07:08;;;;;;;4.32;1.10;;;;;;;-148.56;100.00;61375.16;5033098;28;20047;-29
2022/08/23 14:10:33;;;;;;;1.27;1.17;;;;;;;-148.56;100.00;61375.16;5028044;28;20672;-29
2022/08/23 14:13:57;;;;;;;1.67;1.30;;;;;;;-148.56;100.00;61375.16;5033367;28;20594;-27
2022/08/23 14:17:25;;;;;;;1.10;1.00;;;;;;;-148.56;100.00;61375.16;5030633;28;20164;-29
2022/08/23 14:20:49;;;;;;;1.65;1.20;;;;;;;-148.56;100.00;61375.16;5032723;28;20167;-31
2022/08/23 14:24:13;;;;;;;1.88;1.30;;;;;;;-148.56;100.00;61375.16;5038506;28;20039;-31
2022/08/23 14:27:40;;;;;;;1.42;1.17;;;;;;;-148.56;100.00;61375.16;5035337;28;20083;-30
2022/08/23 14:31:05;;;;;;;1.33;1.02;;;;;;;-148.56;100.00;61375.16;5031526;28;20152;-31
2022/08/23 14:34:29;;;;;;;1.50;1.05;;;;;;;-148.56;100.00;61375.16;5031811;28;20539;-29
2022/08/23 14:37:53;;;;;;;1.10;0.90;;;;;;;-148.56;100.00;61375.16;5029938;28;20036;-28
2022/08/23 14:41:18;;;;;;;1.52;1.10;;;;;;;-148.56;100.00;61375.16;5030462;28;20025;-30
2022/08/23 14:44:42;;;;;;;1.15;1.05;;;;;;;-148.56;100.00;61375.16;5030702;28;20029;-27
2022/08/23 14:48:05;;;;;;;1.02;0.90;;;;;;;-148.56;100.00;61375.16;5030744;28;20128;-29
2022/08/23 14:51:33;;;;;;;1.13;0.82;;;;;;;-148.56;100.00;61375.16;5033378;28;20036;-28
2022/08/23 14:54:58;;;;;;;1.23;0.93;;;;;;;-148.56;100.00;61375.16;5034965;28;20041;-30
2022/08/23 14:58:22;;;;;;;1.10;1.00;;;;;;;-148.56;100.00;61375.16;5031579;28;20501;-27
2022/08/23 15:01:46;;;;;;;1.20;1.10;;;;;;;-148.56;100.00;61375.16;5029829;28;20137;-26
2022/08/23 15:05:12;;;;;;;1.40;0.95;;;;;;;-148.56;100.00;61375.16;5029706;28;20056;-28
2022/08/23 15:08:36;;;;;;;1.10;1.00;;;;;;;-148.56;100.00;61375.16;5031809;28;20627;-27
2022/08/23 15:12:00;;;;;;;0.95;0.90;;;;;;;-148.56;100.00;61375.16;5031821;28;20110;-28
2022/08/23 15:15:24;;;;;;;1.27;0.90;;;;;;;-148.56;100.00;61375.16;5031812;28;20063;-27
2022/08/23 15:18:52;;;;;;;0.85;0.80;;;;;;;-148.56;100.00;61375.16;5046041;28;20037;-28
2022/08/23 15:22:16;;;;;;;1.27;1.00;;;;;;;-148.56;100.00;61375.16;5037909;28;20099;-29
2022/08/23 15:25:40;;;;;;;1.10;1.00;;;;;;;-148.56;100.00;61375.16;5031408;28;20045;-27
2022/08/23 15:29:04;;;;;;;0.98;0.88;;;;;;;-148.56;100.00;61375.16;5030360;28;20126;-32
2022/08/23 15:32:28;;;;;;;0.82;0.80;;;;;;;-148.56;100.00;61375.16;5030470;28;20042;-28
2022/08/23 15:35:53;;;;;;;0.90;0.80;;;;;;;-148.56;100.00;61375.16;5031201;28;20032;-27
2022/08/23 15:39:17;;;;;;;0.95;0.70;;;;;;;-148.56;100.00;61375.16;5031768;28;20029;-32
2022/08/23 15:42:41;;;;;;;0.80;0.80;;;;;;;-148.56;100.00;61375.16;5031204;28;20535;-27
2022/08/23 15:46:05;;;;;;;1.02;0.85;;;;;;;-148.56;100.00;61375.16;5028432;28;20040;-29
2022/08/23 15:49:47;;;;;;;1.45;0.93;;;;;;;-148.56;100.00;61375.16;5025437;28;20151;-27
2022/08/23 15:53:11;;;;;;;0.57;0.57;;;;;;;-148.56;100.00;61375.16;5025017;28;20033;-28
2022/08/23 15:56:37;;;;;;;1.05;0.82;;;;;;;-148.56;100.00;61375.16;5028141;28;20065;-28